Time;durP1;ratioP1;P1;durP2;ratioP2;P2;SDS_P1;SDS_P2;PMS_P1;PMS_P2;Temp;Humidity;BMP_temperature;BMP_pressure;BME280_temperature;BME280_humidity;BME280_pressure;Samples;Min_cycle;Max_cycle;Signal;HPM_P1;HPM_P2
2023/01/12 00:03:59;;;;;;;31.15;15.80;;;;;;;;;;12846533;19;20108;-66
2023/01/12 00:08:16;;;;;;;38.85;18.30;;;;;;;;;;12847518;19;20014;-67
2023/01/12 00:12:33;;;;;;;28.77;15.25;;;;;;;;;;12844412;19;20021;-67
2023/01/12 00:16:51;;;;;;;29.02;12.93;;;;;;;;;;12848950;19;20363;-69
2023/01/12 00:21:09;;;;;;;24.63;13.25;;;;;;;;;;12847056;19;20486;-67
2023/01/12 00:25:27;;;;;;;28.52;14.38;;;;;;;;;;12847128;19;20472;-67
2023/01/12 00:29:45;;;;;;;27.33;13.15;;;;;;;;;;12848821;19;20387;-67
2023/01/12 00:34:03;;;;;;;28.65;13.73;;;;;;;;;;12845754;19;20444;-67
2023/01/12 00:38:20;;;;;;;18.17;10.25;;;;;;;;;;12847385;19;20078;-66
2023/01/12 00:47:15;;;;;;;21.90;9.93;;;;;;;;;;12844792;19;20370;-67
2023/01/12 00:51:33;;;;;;;17.63;9.10;;;;;;;;;;12844741;19;20369;-66
2023/01/12 00:55:51;;;;;;;18.70;7.93;;;;;;;;;;12849479;19;20355;-67
2023/01/12 01:00:09;;;;;;;10.50;6.93;;;;;;;;;;12845708;19;20584;-67
2023/01/12 01:04:27;;;;;;;13.55;7.43;;;;;;;;;;12846075;19;20002;-67
2023/01/12 01:08:45;;;;;;;13.77;6.57;;;;;;;;;;12843666;19;20018;-66
2023/01/12 01:13:02;;;;;;;10.75;5.63;;;;;;;;;;12845346;19;20540;-67
2023/01/12 01:17:21;;;;;;;8.50;4.85;;;;;;;;;;12845618;19;20011;-66
2023/01/12 01:21:38;;;;;;;8.35;4.82;;;;;;;;;;12845068;19;20457;-67
2023/01/12 01:26:02;;;;;;;7.07;4.40;;;;;;;;;;12841804;19;20358;-67
2023/01/12 01:30:20;;;;;;;7.85;4.70;;;;;;;;;;12842560;19;20363;-66
2023/01/12 01:34:38;;;;;;;9.33;5.30;;;;;;;;;;12844823;19;20469;-66
2023/01/12 01:38:55;;;;;;;9.70;4.90;;;;;;;;;;12843850;19;20086;-69
2023/01/12 01:43:15;;;;;;;8.50;5.07;;;;;;;;;;12842103;19;20036;-67
2023/01/12 01:47:41;;;;;;;8.57;5.22;;;;;;;;;;12840841;19;20491;-67
2023/01/12 01:52:09;;;;;;;9.38;5.00;;;;;;;;;;12842309;19;20299;-68
2023/01/12 01:56:30;;;;;;;8.35;4.57;;;;;;;;;;12840749;19;20023;-69
2023/01/12 02:00:48;;;;;;;9.25;5.07;;;;;;;;;;12841195;19;20051;-66
2023/01/12 02:05:07;;;;;;;12.68;6.45;;;;;;;;;;12840618;19;20150;-67
2023/01/12 02:09:27;;;;;;;10.20;5.07;;;;;;;;;;12842207;19;20522;-67
2023/01/12 02:18:44;;;;;;;10.30;6.35;;;;;;;;;;12838207;19;21172;-67
2023/01/12 02:23:34;;;;;;;12.00;5.93;;;;;;;;;;12839774;19;20356;-68
2023/01/12 02:28:18;;;;;;;7.00;4.40;;;;;;;;;;12841486;19;20351;-68
2023/01/12 02:33:07;;;;;;;8.75;5.10;;;;;;;;;;12837320;19;20486;-66
2023/01/12 02:37:44;;;;;;;9.18;4.45;;;;;;;;;;12840186;19;20445;-66
2023/01/12 02:46:50;;;;;;;6.35;3.88;;;;;;;;;;12838232;19;20474;-67
2023/01/12 02:51:28;;;;;;;6.93;4.03;;;;;;;;;;12838514;19;20497;-67
2023/01/12 02:55:46;;;;;;;8.43;4.15;;;;;;;;;;12838498;19;20477;-67
2023/01/12 03:00:04;;;;;;;;;;;;;;;;;;12839289;19;20425;-67
2023/01/12 03:04:23;;;;;;;6.47;4.07;;;;;;;;;;12837589;19;20420;-67
2023/01/12 03:08:41;;;;;;;5.70;4.13;;;;;;;;;;12837742;19;20694;-67
2023/01/12 03:13:05;;;;;;;8.20;4.27;;;;;;;;;;12837492;19;20481;-67
2023/01/12 03:17:37;;;;;;;9.52;4.97;;;;;;;;;;12801114;19;20725;-67
2023/01/12 03:22:10;;;;;;;11.05;5.35;;;;;;;;;;12839435;19;20485;-66
2023/01/12 03:26:31;;;;;;;8.07;4.78;;;;;;;;;;12836245;19;20014;-66
2023/01/12 03:30:55;;;;;;;8.13;4.95;;;;;;;;;;12835562;19;20482;-67
2023/01/12 03:35:13;;;;;;;8.82;4.18;;;;;;;;;;12835308;19;20313;-67
2023/01/12 03:39:58;;;;;;;9.10;4.97;;;;;;;;;;12836614;19;20426;-66
2023/01/12 03:44:29;;;;;;;7.53;4.35;;;;;;;;;;12835041;19;20018;-68
2023/01/12 03:49:12;;;;;;;9.70;5.90;;;;;;;;;;12835657;19;20437;-66
2023/01/12 03:53:32;;;;;;;9.02;5.15;;;;;;;;;;12837297;19;20468;-66
2023/01/12 03:57:52;;;;;;;9.77;4.90;;;;;;;;;;12834967;19;20082;-67
2023/01/12 04:02:11;;;;;;;14.38;5.97;;;;;;;;;;12835168;19;20469;-66
2023/01/12 04:06:28;;;;;;;9.25;4.60;;;;;;;;;;12834460;19;20445;-67
2023/01/12 04:10:46;;;;;;;8.05;4.93;;;;;;;;;;12836145;19;20413;-67
2023/01/12 04:15:05;;;;;;;5.63;4.33;;;;;;;;;;12834774;19;20021;-70
2023/01/12 04:19:23;;;;;;;7.15;4.30;;;;;;;;;;12835987;19;20456;-66
2023/01/12 04:23:40;;;;;;;8.43;5.33;;;;;;;;;;12835646;19;20477;-68
2023/01/12 04:28:02;;;;;;;7.35;4.32;;;;;;;;;;12836538;19;20437;-66
2023/01/12 04:32:20;;;;;;;6.10;4.20;;;;;;;;;;12834554;19;20473;-66
2023/01/12 04:36:40;;;;;;;7.63;4.43;;;;;;;;;;12834769;19;20443;-71
2023/01/12 04:40:58;;;;;;;5.88;4.20;;;;;;;;;;12835237;19;20714;-67
2023/01/12 04:45:16;;;;;;;5.63;4.17;;;;;;;;;;12842020;19;20468;-67
2023/01/12 04:49:33;;;;;;;7.65;4.88;;;;;;;;;;12847033;19;20758;-66
2023/01/12 04:53:52;;;;;;;7.60;5.23;;;;;;;;;;12846873;19;20493;-68
2023/01/12 04:58:09;;;;;;;7.22;5.13;;;;;;;;;;12845102;19;20389;-72
2023/01/12 05:02:27;;;;;;;10.53;5.53;;;;;;;;;;12845676;19;20015;-67
2023/01/12 05:06:44;;;;;;;14.40;5.93;;;;;;;;;;12841487;19;20430;-67
2023/01/12 05:11:02;;;;;;;11.50;4.80;;;;;;;;;;12844679;19;20078;-67
2023/01/12 05:15:19;;;;;;;7.90;5.15;;;;;;;;;;12844814;19;20037;-66
2023/01/12 05:19:38;;;;;;;8.70;5.45;;;;;;;;;;12845188;19;20007;-67
2023/01/12 05:23:56;;;;;;;9.05;5.38;;;;;;;;;;12844953;19;20373;-67
2023/01/12 05:28:14;;;;;;;9.70;6.03;;;;;;;;;;12842934;19;20396;-66
2023/01/12 05:32:37;;;;;;;;;;;;;;;;;;12846553;19;20430;-68
2023/01/12 05:36:54;;;;;;;7.78;5.60;;;;;;;;;;12843951;19;20269;-67
2023/01/12 05:41:13;;;;;;;9.03;6.10;;;;;;;;;;12843649;19;20422;-67
2023/01/12 05:45:31;;;;;;;9.82;5.40;;;;;;;;;;12841791;19;20489;-67
2023/01/12 05:49:48;;;;;;;9.45;6.05;;;;;;;;;;12843946;19;20305;-68
2023/01/12 05:54:06;;;;;;;10.83;6.60;;;;;;;;;;12838746;19;20469;-67
2023/01/12 05:58:24;;;;;;;9.05;5.75;;;;;;;;;;12840763;19;20018;-67
2023/01/12 06:02:42;;;;;;;11.48;6.47;;;;;;;;;;12843053;19;20362;-66
2023/01/12 06:06:59;;;;;;;8.57;5.72;;;;;;;;;;12841645;19;20355;-67
2023/01/12 06:16:04;;;;;;;11.13;5.05;;;;;;;;;;12841882;19;20491;-67
2023/01/12 06:20:21;;;;;;;10.77;5.50;;;;;;;;;;12841904;19;20100;-67
2023/01/12 06:24:39;;;;;;;8.77;5.33;;;;;;;;;;12841229;19;20468;-66
2023/01/12 06:28:57;;;;;;;10.57;6.43;;;;;;;;;;12841886;19;20738;-66
2023/01/12 06:33:15;;;;;;;10.20;5.40;;;;;;;;;;12841046;19;20474;-70
2023/01/12 06:37:32;;;;;;;13.90;7.57;;;;;;;;;;12841282;19;20337;-66
2023/01/12 06:46:27;;;;;;;12.00;7.68;;;;;;;;;;12838330;19;20493;-66
2023/01/12 06:50:45;;;;;;;14.40;7.28;;;;;;;;;;12841467;19;20023;-66
2023/01/12 06:55:03;;;;;;;10.10;5.83;;;;;;;;;;12840428;19;20384;-67
2023/01/12 06:59:21;;;;;;;11.27;7.30;;;;;;;;;;12838097;19;20464;-67
2023/01/12 07:03:38;;;;;;;12.98;7.60;;;;;;;;;;12839309;19;20364;-66
2023/01/12 07:07:59;;;;;;;11.95;8.07;;;;;;;;;;12836877;19;20469;-67
2023/01/12 07:12:17;;;;;;;10.25;6.03;;;;;;;;;;12838598;19;20533;-67
2023/01/12 07:16:34;;;;;;;11.53;7.80;;;;;;;;;;12837230;19;20104;-67
2023/01/12 07:20:53;;;;;;;16.77;7.72;;;;;;;;;;12839639;19;20355;-67
2023/01/12 07:25:11;;;;;;;16.15;8.80;;;;;;;;;;12836328;19;20469;-67
2023/01/12 07:29:29;;;;;;;14.98;10.07;;;;;;;;;;12837484;19;20024;-67
2023/01/12 07:33:51;;;;;;;15.38;8.65;;;;;;;;;;12836987;19;20331;-68
2023/01/12 07:38:09;;;;;;;15.05;9.18;;;;;;;;;;12836394;19;20361;-68
2023/01/12 07:42:27;;;;;;;15.43;8.32;;;;;;;;;;12836918;19;20579;-67
2023/01/12 07:46:45;;;;;;;21.80;9.17;;;;;;;;;;12835627;19;20047;-67
2023/01/12 07:51:03;;;;;;;14.73;8.80;;;;;;;;;;12836233;19;20367;-66
2023/01/12 07:55:20;;;;;;;14.65;8.68;;;;;;;;;;12836561;19;20443;-67
2023/01/12 07:59:38;;;;;;;12.60;7.83;;;;;;;;;;12834674;19;20018;-67
2023/01/12 08:03:56;;;;;;;14.33;9.13;;;;;;;;;;12834476;19;20386;-66
2023/01/12 08:08:13;;;;;;;17.67;9.33;;;;;;;;;;12834878;19;20090;-67
2023/01/12 08:12:31;;;;;;;12.53;8.23;;;;;;;;;;12835193;19;20494;-67
2023/01/12 08:16:49;;;;;;;11.30;7.05;;;;;;;;;;12839081;19;20494;-67
2023/01/12 08:21:13;;;;;;;13.98;9.48;;;;;;;;;;12845675;19;20503;-67
2023/01/12 08:25:37;;;;;;;42.30;25.42;;;;;;;;;;12847123;19;20461;-68
2023/01/12 08:29:58;;;;;;;23.70;14.50;;;;;;;;;;12846997;19;20386;-68
2023/01/12 08:34:16;;;;;;;17.70;10.13;;;;;;;;;;12845116;19;20583;-67
2023/01/12 08:38:34;;;;;;;14.98;9.57;;;;;;;;;;12849535;19;20335;-68
2023/01/12 08:42:52;;;;;;;17.05;10.00;;;;;;;;;;12845833;19;20469;-67
2023/01/12 08:47:29;;;;;;;16.10;9.27;;;;;;;;;;12844144;19;20014;-67
2023/01/12 08:51:46;;;;;;;17.23;10.27;;;;;;;;;;12845513;19;20553;-67
2023/01/12 08:56:05;;;;;;;13.00;7.83;;;;;;;;;;12844192;19;20374;-67
2023/01/12 09:00:23;;;;;;;13.35;9.15;;;;;;;;;;12846125;19;20434;-67
2023/01/12 09:04:41;;;;;;;33.20;13.00;;;;;;;;;;12844315;19;20382;-67
2023/01/12 09:09:05;;;;;;;17.42;8.85;;;;;;;;;;12843631;19;20461;-68
2023/01/12 09:13:24;;;;;;;13.73;9.30;;;;;;;;;;12843360;19;20581;-66
2023/01/12 09:17:43;;;;;;;17.83;12.73;;;;;;;;;;12845262;19;20422;-67
2023/01/12 09:22:02;;;;;;;13.43;8.05;;;;;;;;;;12844415;19;20384;-66
2023/01/12 09:26:30;;;;;;;22.38;13.77;;;;;;;;;;12841787;19;20550;-66
2023/01/12 09:30:48;;;;;;;15.73;8.75;;;;;;;;;;12843610;19;20500;-67
2023/01/12 09:35:06;;;;;;;22.20;10.32;;;;;;;;;;12843550;19;20477;-68
2023/01/12 09:39:25;;;;;;;13.88;8.63;;;;;;;;;;12844188;19;20461;-68
2023/01/12 09:48:23;;;;;;;21.83;10.02;;;;;;;;;;12841587;19;20580;-69
2023/01/12 09:53:04;;;;;;;21.80;12.07;;;;;;;;;;12840832;19;20022;-67
2023/01/12 09:57:56;;;;;;;20.80;12.18;;;;;;;;;;12841383;19;20505;-66
2023/01/12 10:02:14;;;;;;;39.05;19.30;;;;;;;;;;12839730;19;20464;-67
2023/01/12 10:06:34;;;;;;;21.13;12.05;;;;;;;;;;12839714;19;20288;-67
2023/01/12 10:11:27;;;;;;;19.38;9.95;;;;;;;;;;12842316;19;20388;-67
2023/01/12 10:15:59;;;;;;;21.27;9.13;;;;;;;;;;12839998;19;20307;-66
2023/01/12 10:20:41;;;;;;;20.77;11.35;;;;;;;;;;12839314;19;20399;-66
2023/01/12 10:24:58;;;;;;;18.65;9.90;;;;;;;;;;12838803;19;20310;-69
2023/01/12 10:29:16;;;;;;;15.77;9.30;;;;;;;;;;12840182;19;20532;-66
2023/01/12 10:33:34;;;;;;;14.95;6.95;;;;;;;;;;12840051;19;20093;-66
2023/01/12 10:37:54;;;;;;;;;;;;;;;;;;12841654;19;20469;-67
2023/01/12 10:43:17;;;;;;;18.75;9.13;;;;;;;;;;12838824;19;20397;-67
2023/01/12 10:47:15;;;;;;;11.52;7.20;;;;;;;;;;12838840;19;20106;-67
2023/01/12 10:51:34;;;;;;;20.90;11.07;;;;;;;;;;12837323;19;20369;-67
2023/01/12 10:55:54;;;;;;;31.20;14.93;;;;;;;;;;12840611;19;20006;-66
2023/01/12 11:00:24;;;;;;;17.00;7.85;;;;;;;;;;12805383;19;20047;-67
2023/01/12 11:04:51;;;;;;;23.58;10.60;;;;;;;;;;12837136;19;20498;-66
2023/01/12 11:09:21;;;;;;;9.10;5.72;;;;;;;;;;12835562;19;20371;-66
2023/01/12 11:13:39;;;;;;;10.18;5.85;;;;;;;;;;12836945;19;20505;-68
2023/01/12 11:18:39;;;;;;;10.10;4.97;;;;;;;;;;12838039;19;20031;-67
2023/01/12 11:23:02;;;;;;;12.27;4.93;;;;;;;;;;12836045;19;20102;-66
2023/01/12 11:27:45;;;;;;;9.60;5.80;;;;;;;;;;12835588;19;20489;-66
2023/01/12 11:32:15;;;;;;;9.38;4.95;;;;;;;;;;12835175;19;20573;-66
2023/01/12 11:36:41;;;;;;;11.13;5.93;;;;;;;;;;12834281;19;20494;-66
2023/01/12 11:40:59;;;;;;;15.70;7.13;;;;;;;;;;12835645;19;20111;-66
2023/01/12 11:45:27;;;;;;;17.33;8.82;;;;;;;;;;12833435;19;20628;-67
2023/01/12 11:50:17;;;;;;;23.88;11.98;;;;;;;;;;12834682;19;20385;-66
2023/01/12 11:54:37;;;;;;;13.18;7.05;;;;;;;;;;12833321;19;20040;-67
2023/01/12 11:59:31;;;;;;;17.23;9.13;;;;;;;;;;12834887;19;20428;-67
2023/01/12 12:03:58;;;;;;;24.65;12.73;;;;;;;;;;12833633;19;20367;-66
2023/01/12 12:08:21;;;;;;;18.90;9.15;;;;;;;;;;12834323;19;20007;-67
2023/01/12 12:13:03;;;;;;;35.47;14.27;;;;;;;;;;12835572;19;20355;-65
2023/01/12 12:17:43;;;;;;;24.58;12.05;;;;;;;;;;12832162;19;20334;-68
2023/01/12 12:23:03;;;;;;;24.88;12.60;;;;;;;;;;12833459;19;20441;-67
2023/01/12 12:27:36;;;;;;;14.52;8.85;;;;;;;;;;12832643;19;20386;-66
2023/01/12 12:32:09;;;;;;;11.50;4.53;;;;;;;;;;12834621;19;20296;-66
2023/01/12 12:36:38;;;;;;;7.30;3.95;;;;;;;;;;12832280;19;20472;-66
2023/01/12 12:46:39;;;;;;;11.05;4.47;;;;;;;;;;12827368;19;20082;-66
2023/01/12 12:51:05;;;;;;;9.00;3.28;;;;;;;;;;12819216;19;117270;-65
2023/01/12 12:55:24;;;;;;;7.25;3.47;;;;;;;;;;12832655;19;20415;-66
2023/01/12 12:59:58;;;;;;;7.43;3.05;;;;;;;;;;12833223;19;20479;-66
2023/01/12 13:04:42;;;;;;;7.60;3.63;;;;;;;;;;12835002;19;20074;-68
2023/01/12 13:09:15;;;;;;;12.63;3.85;;;;;;;;;;12842913;19;20354;-67
2023/01/12 13:13:36;;;;;;;12.30;4.57;;;;;;;;;;12844622;19;20388;-65
2023/01/12 13:17:54;;;;;;;9.90;3.45;;;;;;;;;;12843005;19;20070;-67
2023/01/12 13:22:31;;;;;;;9.85;2.75;;;;;;;;;;12841625;19;20354;-66
2023/01/12 13:26:51;;;;;;;7.32;2.40;;;;;;;;;;12844014;19;20489;-68
2023/01/12 13:31:30;;;;;;;9.82;3.35;;;;;;;;;;12842682;19;20347;-67
2023/01/12 13:35:47;;;;;;;5.47;2.70;;;;;;;;;;12843950;19;20485;-66
2023/01/12 13:40:18;;;;;;;6.97;3.00;;;;;;;;;;12841109;19;20314;-65
2023/01/12 13:44:40;;;;;;;16.50;6.05;;;;;;;;;;12842345;19;20106;-68
2023/01/12 13:48:59;;;;;;;28.63;8.20;;;;;;;;;;12841657;19;20472;-68
2023/01/12 13:53:25;;;;;;;10.05;4.47;;;;;;;;;;12840399;19;20035;-66
2023/01/12 13:57:56;;;;;;;27.40;10.40;;;;;;;;;;12839999;19;20313;-66
2023/01/12 14:02:17;;;;;;;22.40;9.13;;;;;;;;;;12841748;19;20007;-67
2023/01/12 14:07:38;;;;;;;33.30;14.80;;;;;;;;;;12841316;19;20307;-66
2023/01/12 14:12:17;;;;;;;12.18;7.70;;;;;;;;;;12834069;19;20545;-68
2023/01/12 14:21:26;;;;;;;14.32;7.50;;;;;;;;;;12841976;19;20500;-65
2023/01/12 14:26:01;;;;;;;13.85;4.97;;;;;;;;;;12838289;19;20010;-66
2023/01/12 14:30:20;;;;;;;10.73;4.40;;;;;;;;;;12840927;19;20472;-66
2023/01/12 14:34:45;;;;;;;31.08;13.38;;;;;;;;;;12838996;19;20453;-66
2023/01/12 14:39:13;;;;;;;26.40;10.48;;;;;;;;;;12839658;19;20427;-66
2023/01/12 14:48:22;;;;;;;17.10;8.52;;;;;;;;;;12836216;19;20469;-66
2023/01/12 14:52:44;;;;;;;37.53;21.67;;;;;;;;;;12839611;19;20351;-66
2023/01/12 14:57:24;;;;;;;21.35;11.20;;;;;;;;;;12834917;19;20470;-67
2023/01/12 15:02:06;;;;;;;31.60;15.00;;;;;;;;;;12839189;19;20510;-66
2023/01/12 15:06:24;;;;;;;31.60;16.52;;;;;;;;;;12837290;19;20382;-66
2023/01/12 15:10:43;;;;;;;30.23;18.33;;;;;;;;;;12838038;19;20493;-66
2023/01/12 15:29:33;;;;;;;49.97;26.47;;;;;;;;;;12834579;19;20107;-66
2023/01/12 15:33:51;;;;;;;41.23;20.43;;;;;;;;;;12837008;19;20457;-66
2023/01/12 15:38:12;;;;;;;66.45;33.03;;;;;;;;;;12834508;19;20601;-66
2023/01/12 15:42:30;;;;;;;63.25;33.58;;;;;;;;;;12835350;19;20368;-66
2023/01/12 15:46:47;;;;;;;110.93;60.65;;;;;;;;;;12835780;19;20493;-68
2023/01/12 15:51:09;;;;;;;63.83;34.50;;;;;;;;;;12835622;19;20343;-66
2023/01/12 15:55:30;;;;;;;35.10;20.38;;;;;;;;;;12833643;19;20466;-67
2023/01/12 15:59:47;;;;;;;30.40;16.48;;;;;;;;;;12836665;19;20452;-66
2023/01/12 16:04:12;;;;;;;38.80;17.70;;;;;;;;;;12832694;19;20429;-68
2023/01/12 16:08:50;;;;;;;62.10;23.63;;;;;;;;;;12832154;19;20410;-67
2023/01/12 16:13:10;;;;;;;48.93;19.00;;;;;;;;;;12834674;19;20368;-66
2023/01/12 16:17:28;;;;;;;132.70;42.88;;;;;;;;;;12833768;19;20326;-67
2023/01/12 16:21:46;;;;;;;26.10;11.73;;;;;;;;;;12835274;19;20584;-66
2023/01/12 16:26:05;;;;;;;61.08;22.67;;;;;;;;;;12833387;19;20457;-66
2023/01/12 16:30:23;;;;;;;29.17;10.65;;;;;;;;;;12834488;19;20489;-67
2023/01/12 16:34:41;;;;;;;31.83;11.05;;;;;;;;;;12834766;19;20381;-66
2023/01/12 16:38:59;;;;;;;23.17;9.83;;;;;;;;;;12840220;19;20489;-66
2023/01/12 16:43:19;;;;;;;16.17;7.22;;;;;;;;;;12845554;19;20335;-66
2023/01/12 16:47:37;;;;;;;12.90;6.20;;;;;;;;;;12842851;19;20359;-66
2023/01/12 16:51:55;;;;;;;19.80;7.78;;;;;;;;;;12846065;19;20521;-66
2023/01/12 16:56:15;;;;;;;14.43;5.97;;;;;;;;;;12844809;19;20376;-65
2023/01/12 17:00:32;;;;;;;10.05;4.85;;;;;;;;;;12845981;19;20327;-65
2023/01/12 17:04:50;;;;;;;18.08;7.63;;;;;;;;;;12845735;19;20456;-66
2023/01/12 17:09:09;;;;;;;27.13;10.48;;;;;;;;;;12842759;19;20498;-66
2023/01/12 17:13:33;;;;;;;13.13;6.60;;;;;;;;;;12831295;19;20843;-67
2023/01/12 17:17:59;;;;;;;25.17;9.85;;;;;;;;;;12805233;19;20363;-65
2023/01/12 17:22:17;;;;;;;34.92;15.05;;;;;;;;;;12846134;19;20469;-66
2023/01/12 17:26:36;;;;;;;28.70;11.13;;;;;;;;;;12843336;19;20469;-66
2023/01/12 17:30:56;;;;;;;27.95;11.65;;;;;;;;;;12845450;19;20331;-68
2023/01/12 17:35:14;;;;;;;33.47;15.07;;;;;;;;;;12842886;19;20433;-66
2023/01/12 17:39:33;;;;;;;52.55;19.08;;;;;;;;;;12843047;19;20356;-66
2023/01/12 17:43:51;;;;;;;31.55;15.35;;;;;;;;;;12843330;19;20339;-66
2023/01/12 17:48:10;;;;;;;24.38;12.32;;;;;;;;;;12838250;19;20018;-66
2023/01/12 17:52:28;;;;;;;23.67;10.85;;;;;;;;;;12839474;19;20391;-67
2023/01/12 17:56:46;;;;;;;26.08;15.40;;;;;;;;;;12843368;19;20361;-65
2023/01/12 18:01:11;;;;;;;22.05;11.13;;;;;;;;;;12844038;19;20453;-66
2023/01/12 18:05:30;;;;;;;24.45;11.93;;;;;;;;;;12841528;19;20393;-68
2023/01/12 18:09:47;;;;;;;;;;;;;;;;;;12842844;19;20074;-65
2023/01/12 18:14:07;;;;;;;31.67;15.68;;;;;;;;;;12838645;19;19978;-67
2023/01/12 18:18:25;;;;;;;34.85;15.20;;;;;;;;;;12840954;19;20373;-65
2023/01/12 18:22:43;;;;;;;35.63;15.67;;;;;;;;;;12841169;19;20376;-67
2023/01/12 18:27:01;;;;;;;48.50;18.58;;;;;;;;;;12840110;19;20498;-68
2023/01/12 18:31:22;;;;;;;44.87;18.73;;;;;;;;;;12838868;19;20476;-66
2023/01/12 18:35:40;;;;;;;42.50;18.88;;;;;;;;;;12840188;19;20346;-65
2023/01/12 18:39:58;;;;;;;59.53;21.37;;;;;;;;;;12840529;19;20481;-65
2023/01/12 18:44:16;;;;;;;55.80;23.33;;;;;;;;;;12839310;19;20606;-65
2023/01/12 18:48:34;;;;;;;47.95;20.00;;;;;;;;;;12837631;19;20375;-65
2023/01/12 18:57:31;;;;;;;50.88;19.45;;;;;;;;;;12839744;19;20367;-65
2023/01/12 19:01:49;;;;;;;89.10;32.67;;;;;;;;;;12836789;19;20376;-65
2023/01/12 19:06:37;;;;;;;73.70;25.37;;;;;;;;;;12836775;19;20662;-65
2023/01/12 19:11:07;;;;;;;72.68;25.35;;;;;;;;;;12838585;19;20442;-65
2023/01/12 19:20:08;;;;;;;97.05;30.00;;;;;;;;;;12836450;19;20070;-67
2023/01/12 19:29:03;;;;;;;78.05;30.58;;;;;;;;;;12836303;19;20394;-67
2023/01/12 19:33:20;;;;;;;80.10;32.15;;;;;;;;;;12835670;19;20481;-66
2023/01/12 19:37:44;;;;;;;87.57;34.95;;;;;;;;;;12837808;19;20485;-65
2023/01/12 19:46:39;;;;;;;56.97;21.60;;;;;;;;;;12838298;19;20354;-65
2023/01/12 19:51:06;;;;;;;40.23;17.13;;;;;;;;;;12836568;19;20078;-67
2023/01/12 19:55:27;;;;;;;34.60;16.20;;;;;;;;;;12836995;19;20454;-64
2023/01/12 19:59:47;;;;;;;80.73;22.47;;;;;;;;;;12330520;19;10002028;-65
2023/01/12 20:04:04;;;;;;;34.85;15.45;;;;;;;;;;12834158;19;20454;-65
2023/01/12 20:08:24;;;;;;;31.98;13.52;;;;;;;;;;12833444;19;20363;-66
2023/01/12 20:12:41;;;;;;;32.10;12.65;;;;;;;;;;12838381;19;20478;-65
2023/01/12 20:16:59;;;;;;;30.17;12.25;;;;;;;;;;12847894;19;20006;-64
2023/01/12 20:21:17;;;;;;;32.60;12.68;;;;;;;;;;12848691;19;20470;-65
2023/01/12 20:25:35;;;;;;;25.53;11.70;;;;;;;;;;12848197;19;20488;-64
2023/01/12 20:29:52;;;;;;;26.97;11.60;;;;;;;;;;12846857;19;20377;-64
2023/01/12 20:34:12;;;;;;;20.97;11.03;;;;;;;;;;12845533;19;20364;-64
2023/01/12 20:38:29;;;;;;;28.52;13.15;;;;;;;;;;12847485;19;20651;-64
2023/01/12 20:42:47;;;;;;;30.92;11.30;;;;;;;;;;12847132;19;20441;-64
2023/01/12 20:47:05;;;;;;;25.13;10.95;;;;;;;;;;12846793;19;20082;-65
2023/01/12 20:51:23;;;;;;;20.90;9.05;;;;;;;;;;12845844;19;20485;-64
2023/01/12 20:55:49;;;;;;;20.13;9.23;;;;;;;;;;12845229;19;20513;-64
2023/01/12 21:00:09;;;;;;;26.10;10.30;;;;;;;;;;12843672;19;20014;-65
2023/01/12 21:04:26;;;;;;;21.80;9.65;;;;;;;;;;12845530;19;20421;-64
2023/01/12 21:08:46;;;;;;;33.55;13.05;;;;;;;;;;12844268;19;20391;-64
2023/01/12 21:13:04;;;;;;;29.73;13.27;;;;;;;;;;12844702;19;20334;-66
2023/01/12 21:17:22;;;;;;;37.92;15.60;;;;;;;;;;12843219;19;20505;-65
2023/01/12 21:21:39;;;;;;;34.78;15.85;;;;;;;;;;12845395;19;20497;-64
2023/01/12 21:25:58;;;;;;;43.97;18.23;;;;;;;;;;12842792;19;20343;-65
2023/01/12 21:30:16;;;;;;;42.97;18.35;;;;;;;;;;12843574;19;20017;-64
2023/01/12 21:34:41;;;;;;;45.28;18.63;;;;;;;;;;12838710;19;20371;-65
2023/01/12 21:38:58;;;;;;;47.60;19.38;;;;;;;;;;12843040;19;20082;-64
2023/01/12 21:43:17;;;;;;;39.80;18.48;;;;;;;;;;12844451;19;20485;-64
2023/01/12 21:47:34;;;;;;;43.40;17.02;;;;;;;;;;12841394;19;20546;-66
2023/01/12 21:51:52;;;;;;;39.47;14.95;;;;;;;;;;12844329;19;20493;-64
2023/01/12 21:56:11;;;;;;;20.83;9.40;;;;;;;;;;12842220;19;20383;-64
2023/01/12 22:00:29;;;;;;;20.60;9.70;;;;;;;;;;12843472;19;20429;-66
2023/01/12 22:04:47;;;;;;;16.98;7.55;;;;;;;;;;12843345;19;20379;-64
2023/01/12 22:09:04;;;;;;;13.77;6.17;;;;;;;;;;12841857;19;20303;-66
2023/01/12 22:13:22;;;;;;;14.52;5.82;;;;;;;;;;12840654;19;20481;-66
2023/01/12 22:17:40;;;;;;;20.45;7.00;;;;;;;;;;12842623;19;20469;-64
2023/01/12 22:21:58;;;;;;;14.27;5.78;;;;;;;;;;12842027;19;20362;-65
2023/01/12 22:26:17;;;;;;;17.83;7.03;;;;;;;;;;12843841;19;20363;-65
2023/01/12 22:30:35;;;;;;;23.50;9.10;;;;;;;;;;12841057;19;20470;-64
2023/01/12 22:34:57;;;;;;;15.25;7.78;;;;;;;;;;12841709;19;20066;-64
2023/01/12 22:39:14;;;;;;;13.13;6.95;;;;;;;;;;12840673;19;20441;-67
2023/01/12 22:43:39;;;;;;;11.27;5.17;;;;;;;;;;12840760;19;20018;-65
2023/01/12 22:47:56;;;;;;;8.98;4.97;;;;;;;;;;12839369;19;20500;-67
2023/01/12 22:52:14;;;;;;;18.20;7.38;;;;;;;;;;12839873;19;20371;-64
2023/01/12 22:56:32;;;;;;;13.17;5.77;;;;;;;;;;12840097;19;20021;-64
2023/01/12 23:00:52;;;;;;;12.43;5.68;;;;;;;;;;12840171;19;20500;-64
2023/01/12 23:05:10;;;;;;;15.43;5.77;;;;;;;;;;12839393;19;20313;-65
2023/01/12 23:09:27;;;;;;;19.73;6.72;;;;;;;;;;12838748;19;20084;-66
2023/01/12 23:13:46;;;;;;;40.13;11.57;;;;;;;;;;12839730;19;20377;-64
2023/01/12 23:18:05;;;;;;;17.73;8.55;;;;;;;;;;12838251;19;20066;-65
2023/01/12 23:22:23;;;;;;;14.98;5.72;;;;;;;;;;12836686;19;20065;-65
2023/01/12 23:26:40;;;;;;;10.57;5.07;;;;;;;;;;12841335;19;20430;-64
2023/01/12 23:31:10;;;;;;;12.48;5.63;;;;;;;;;;12841855;19;20485;-64
2023/01/12 23:35:33;;;;;;;12.70;4.28;;;;;;;;;;12836305;19;20473;-65
2023/01/12 23:39:51;;;;;;;13.02;5.00;;;;;;;;;;12837841;19;20031;-65
2023/01/12 23:44:09;;;;;;;10.55;3.70;;;;;;;;;;12836775;19;20469;-65
2023/01/12 23:48:28;;;;;;;9.95;4.13;;;;;;;;;;12834771;19;20390;-64
2023/01/12 23:52:49;;;;;;;11.02;4.57;;;;;;;;;;12837776;19;20287;-65
2023/01/12 23:57:06;;;;;;;9.88;4.50;;;;;;;;;;12836548;19;20372;-65
